Time;durP1;ratioP1;P1;durP2;ratioP2;P2;SDS_P1;SDS_P2;PMS_P1;PMS_P2;Temp;Humidity;BMP_temperature;BMP_pressure;BME280_temperature;BME280_humidity;BME280_pressure;Samples;Min_cycle;Max_cycle;Signal;HPM_P1;HPM_P2
2022/07/26 00:00:11;;;;;;;22.70;17.55;;;18.20;99.90;;;;;;5050243;28;20068;-66
2022/07/26 00:02:39;;;;;;;7.47;3.35;;;18.20;99.90;;;;;;5049328;28;20788;-65
2022/07/26 00:05:14;;;;;;;4.28;1.98;;;18.30;99.90;;;;;;5050802;28;20056;-64
2022/07/26 00:07:42;;;;;;;4.18;1.88;;;18.30;99.90;;;;;;5048672;28;20404;-65
2022/07/26 00:10:09;;;;;;;6.15;1.50;;;18.30;99.90;;;;;;5052208;28;20048;-64
2022/07/26 00:12:36;;;;;;;7.55;1.63;;;18.20;99.90;;;;;;5054768;28;20051;-64
2022/07/26 00:15:04;;;;;;;4.68;1.40;;;18.20;99.90;;;;;;5033283;28;20095;-64
2022/07/26 00:17:31;;;;;;;4.88;1.85;;;18.10;99.90;;;;;;5049986;28;20060;-64
2022/07/26 00:19:58;;;;;;;6.68;1.85;;;18.00;99.90;;;;;;5053151;28;20059;-64
2022/07/26 00:22:34;;;;;;;4.78;1.42;;;17.90;99.90;;;;;;5048542;28;20064;-64
2022/07/26 00:25:03;;;;;;;7.85;2.40;;;17.90;99.90;;;;;;5051340;28;20051;-65
2022/07/26 00:27:30;;;;;;;5.53;1.95;;;17.80;99.90;;;;;;5050103;28;20142;-64
2022/07/26 00:29:57;;;;;;;4.50;1.60;;;17.80;99.90;;;;;;5052129;28;20056;-64
2022/07/26 00:32:23;;;;;;;4.85;1.50;;;17.70;99.90;;;;;;5049289;28;20057;-64
2022/07/26 00:34:51;;;;;;;4.05;1.20;;;17.70;99.90;;;;;;5049111;28;20083;-64
2022/07/26 00:37:18;;;;;;;4.53;1.73;;;17.70;99.90;;;;;;5049241;28;20059;-66
2022/07/26 00:39:47;;;;;;;5.90;2.30;;;17.70;99.90;;;;;;5050842;28;20040;-64
2022/07/26 00:42:14;;;;;;;3.85;1.95;;;17.70;99.90;;;;;;5053154;28;20053;-64
2022/07/26 00:44:42;;;;;;;3.88;1.85;;;17.70;99.90;;;;;;5053536;28;20548;-64
2022/07/26 00:47:11;;;;;;;4.53;1.42;;;17.70;99.90;;;;;;5053943;28;20444;-64
2022/07/26 00:49:38;;;;;;;5.22;1.50;;;17.60;99.90;;;;;;5045812;28;20497;-65
2022/07/26 00:52:05;;;;;;;6.63;1.73;;;17.60;99.90;;;;;;5062397;28;20135;-64
2022/07/26 00:54:32;;;;;;;5.05;2.03;;;17.60;99.90;;;;;;5054061;28;20052;-67
2022/07/26 00:56:59;;;;;;;4.72;2.28;;;17.60;99.90;;;;;;5053347;28;20040;-64
2022/07/26 00:59:26;;;;;;;3.63;1.70;;;17.50;99.90;;;;;;5053185;28;20054;-64
2022/07/26 01:01:53;;;;;;;7.97;1.90;;;17.60;99.90;;;;;;5057768;28;20048;-65
2022/07/26 01:04:20;;;;;;;4.03;1.67;;;17.50;99.90;;;;;;5040799;28;20573;-64
2022/07/26 01:06:47;;;;;;;7.28;2.03;;;17.50;99.90;;;;;;5052622;28;20489;-65
2022/07/26 01:09:15;;;;;;;3.60;1.60;;;17.50;99.90;;;;;;5053418;28;20049;-64
2022/07/26 01:11:42;;;;;;;4.30;1.73;;;17.50;99.90;;;;;;5053340;28;20057;-64
2022/07/26 01:14:09;;;;;;;3.42;2.10;;;17.40;99.90;;;;;;5057028;28;20345;-64
2022/07/26 01:16:36;;;;;;;4.70;1.75;;;17.50;99.90;;;;;;5052941;28;20041;-66
2022/07/26 01:19:03;;;;;;;5.97;2.80;;;17.40;99.90;;;;;;5053814;28;20468;-64
2022/07/26 01:21:31;;;;;;;6.20;2.20;;;17.40;99.90;;;;;;5037180;28;20053;-64
2022/07/26 01:23:58;;;;;;;6.15;1.90;;;17.40;99.90;;;;;;5053339;28;20048;-66
2022/07/26 01:26:25;;;;;;;5.65;1.58;;;17.40;99.90;;;;;;5050383;28;20048;-64
2022/07/26 01:28:52;;;;;;;6.15;2.03;;;17.40;99.90;;;;;;5050253;28;20427;-65
2022/07/26 01:31:19;;;;;;;3.83;1.88;;;17.40;99.90;;;;;;5051379;28;20049;-65
2022/07/26 01:33:46;;;;;;;7.28;2.75;;;17.40;99.90;;;;;;5050235;28;20049;-65
2022/07/26 01:36:13;;;;;;;3.38;1.60;;;17.40;99.90;;;;;;5052494;28;20045;-65
2022/07/26 01:38:40;;;;;;;7.70;2.17;;;17.40;99.90;;;;;;5050778;28;20480;-67
2022/07/26 01:41:07;;;;;;;6.90;2.15;;;17.40;99.90;;;;;;5051658;28;20045;-65
2022/07/26 01:43:34;;;;;;;4.13;1.85;;;17.40;99.90;;;;;;5050568;28;20052;-65
2022/07/26 01:46:02;;;;;;;5.45;2.20;;;17.50;99.90;;;;;;5052362;28;20432;-66
2022/07/26 01:48:29;;;;;;;7.35;2.20;;;17.50;99.90;;;;;;5051813;28;20045;-66
2022/07/26 01:50:56;;;;;;;4.68;2.30;;;17.50;99.90;;;;;;5053532;28;20128;-66
2022/07/26 01:53:23;;;;;;;7.85;2.50;;;17.50;99.90;;;;;;5051251;28;20049;-65
2022/07/26 01:55:50;;;;;;;7.95;2.55;;;17.50;99.90;;;;;;5056121;28;20048;-63
2022/07/26 01:58:17;;;;;;;5.72;2.33;;;17.60;99.90;;;;;;5052344;28;20056;-67
2022/07/26 02:00:44;;;;;;;5.25;2.45;;;17.60;99.90;;;;;;5052565;28;20504;-66
2022/07/26 02:03:11;;;;;;;5.97;1.92;;;17.60;99.90;;;;;;5050968;28;20139;-66
2022/07/26 02:05:38;;;;;;;14.00;2.55;;;17.60;99.90;;;;;;5054280;28;20071;-63
2022/07/26 02:08:05;;;;;;;4.05;2.13;;;17.60;99.90;;;;;;5053372;28;20041;-64
2022/07/26 02:13:18;;;;;;;8.48;2.42;;;17.50;99.90;;;;;;5051818;28;20045;-64
2022/07/26 02:15:45;;;;;;;6.55;2.13;;;17.60;99.90;;;;;;5055641;28;20056;-63
2022/07/26 02:18:12;;;;;;;5.38;2.25;;;17.50;99.90;;;;;;5055266;28;20052;-64
2022/07/26 02:20:38;;;;;;;5.53;2.08;;;17.50;99.90;;;;;;5057837;28;20102;-63
2022/07/26 02:23:05;;;;;;;4.72;2.33;;;17.40;99.90;;;;;;5053524;28;20436;-64
2022/07/26 02:25:32;;;;;;;8.13;2.22;;;17.50;99.90;;;;;;5052343;28;20057;-65
2022/07/26 02:28:00;;;;;;;6.85;2.13;;;17.50;99.90;;;;;;5052513;28;20524;-64
2022/07/26 02:30:27;;;;;;;4.78;2.20;;;17.50;99.90;;;;;;5052850;28;20396;-64
2022/07/26 02:32:54;;;;;;;5.57;2.45;;;17.50;99.90;;;;;;5055633;28;20048;-63
2022/07/26 02:35:21;;;;;;;6.95;2.30;;;17.50;99.90;;;;;;5054443;28;20075;-63
2022/07/26 02:37:48;;;;;;;3.40;2.10;;;17.50;99.90;;;;;;5050854;28;20049;-65
2022/07/26 02:40:15;;;;;;;4.05;2.10;;;17.50;99.90;;;;;;5051899;28;20052;-63
2022/07/26 02:42:45;;;;;;;8.45;2.92;;;17.50;99.90;;;;;;5053475;28;20456;-64
2022/07/26 02:45:12;;;;;;;4.53;2.28;;;17.50;99.90;;;;;;5052896;28;20064;-64
2022/07/26 02:47:49;;;;;;;6.60;2.35;;;17.40;99.90;;;;;;5050522;28;20044;-64
2022/07/26 02:50:17;;;;;;;5.80;2.13;;;17.40;99.90;;;;;;5046108;28;20057;-63
2022/07/26 02:52:46;;;;;;;4.72;2.33;;;17.50;99.90;;;;;;5047840;28;20400;-63
2022/07/26 02:55:14;;;;;;;5.85;2.47;;;17.40;99.90;;;;;;5052562;28;20049;-63
2022/07/26 02:57:41;;;;;;;4.88;2.35;;;17.30;99.90;;;;;;5050979;28;20048;-63
2022/07/26 03:00:13;;;;;;;3.63;2.42;;;17.30;99.90;;;;;;5056097;28;20053;-66
2022/07/26 03:02:40;;;;;;;5.35;2.70;;;17.20;99.90;;;;;;5040037;28;20088;-64
2022/07/26 03:05:08;;;;;;;6.13;3.03;;;17.20;99.90;;;;;;5051241;28;20072;-63
2022/07/26 03:07:35;;;;;;;8.40;2.55;;;17.20;99.90;;;;;;5050748;28;20411;-65
2022/07/26 03:10:02;;;;;;;4.00;2.47;;;17.20;99.90;;;;;;5053359;28;20424;-65
2022/07/26 03:12:29;;;;;;;5.35;2.70;;;17.20;99.90;;;;;;5051982;28;20565;-65
2022/07/26 03:14:56;;;;;;;5.05;2.53;;;17.30;99.90;;;;;;5052298;28;20060;-65
2022/07/26 03:17:23;;;;;;;10.90;3.00;;;17.30;99.90;;;;;;5051696;28;20053;-65
2022/07/26 03:19:50;;;;;;;5.20;2.63;;;17.30;99.90;;;;;;5052110;28;20052;-65
2022/07/26 03:22:17;;;;;;;6.15;3.05;;;17.20;99.90;;;;;;5051832;28;20404;-65
2022/07/26 03:24:44;;;;;;;6.05;2.70;;;17.20;99.90;;;;;;5053886;28;20542;-65
2022/07/26 03:27:11;;;;;;;4.55;2.72;;;17.20;99.90;;;;;;5051837;28;20403;-65
2022/07/26 03:29:37;;;;;;;6.43;2.92;;;17.20;99.90;;;;;;5052135;28;20045;-65
2022/07/26 03:32:05;;;;;;;6.05;2.60;;;17.20;99.90;;;;;;5054185;28;20725;-65
2022/07/26 03:34:32;;;;;;;5.93;2.72;;;17.20;99.90;;;;;;5050980;28;20060;-65
2022/07/26 03:36:59;;;;;;;8.55;3.38;;;17.20;99.90;;;;;;5052191;28;20041;-65
2022/07/26 03:39:27;;;;;;;6.03;2.70;;;17.20;99.90;;;;;;5050826;28;20492;-65
2022/07/26 03:41:54;;;;;;;6.07;2.85;;;17.20;99.90;;;;;;5049934;28;20335;-65
2022/07/26 03:44:21;;;;;;;5.38;2.45;;;17.10;99.90;;;;;;5033559;28;20489;-65
2022/07/26 03:46:48;;;;;;;6.63;2.42;;;17.10;99.90;;;;;;5050574;28;20408;-67
2022/07/26 03:49:14;;;;;;;6.28;2.45;;;17.10;99.90;;;;;;5051803;28;20044;-65
2022/07/26 03:51:43;;;;;;;6.38;2.60;;;17.10;99.90;;;;;;5048743;28;20467;-65
2022/07/26 03:54:10;;;;;;;5.57;2.60;;;17.10;99.90;;;;;;5048862;28;20045;-65
2022/07/26 03:56:38;;;;;;;11.35;3.35;;;17.00;99.90;;;;;;5050844;28;20453;-65
2022/07/26 03:59:09;;;;;;;6.78;2.92;;;17.00;99.90;;;;;;5051426;28;20079;-65
2022/07/26 04:01:40;;;;;;;5.75;2.45;;;17.00;99.90;;;;;;5050672;28;20052;-65
2022/07/26 04:04:08;;;;;;;4.82;2.40;;;17.00;99.90;;;;;;5049878;28;20053;-66
2022/07/26 04:06:37;;;;;;;6.97;3.65;;;17.00;99.90;;;;;;5048338;28;20142;-65
2022/07/26 04:09:04;;;;;;;9.90;2.92;;;17.00;99.90;;;;;;5050462;28;20041;-65
2022/07/26 04:11:32;;;;;;;5.22;2.50;;;17.00;99.90;;;;;;5050616;28;20063;-65
2022/07/26 04:13:59;;;;;;;6.88;2.97;;;17.00;99.90;;;;;;5050414;28;20048;-65
2022/07/26 04:16:26;;;;;;;8.25;2.38;;;17.00;99.90;;;;;;5051570;28;21790;-65
2022/07/26 04:18:53;;;;;;;6.05;2.97;;;17.00;99.90;;;;;;5052114;28;20049;-65
2022/07/26 04:21:20;;;;;;;5.25;3.03;;;17.00;99.90;;;;;;5046838;28;20075;-65
2022/07/26 04:23:47;;;;;;;4.65;2.10;;;17.00;99.90;;;;;;5048955;28;20044;-65
2022/07/26 04:26:18;;;;;;;7.43;3.13;;;17.00;99.90;;;;;;5033364;28;20076;-65
2022/07/26 04:28:45;;;;;;;6.82;2.92;;;17.00;99.90;;;;;;5048071;28;20056;-65
2022/07/26 04:31:12;;;;;;;6.90;2.85;;;17.00;99.90;;;;;;5048562;28;20041;-65
2022/07/26 04:33:39;;;;;;;7.07;3.20;;;16.90;99.90;;;;;;5033310;28;20159;-65
2022/07/26 04:36:06;;;;;;;8.05;3.38;;;17.00;99.90;;;;;;5048974;28;20488;-65
2022/07/26 04:38:33;;;;;;;5.95;2.17;;;17.00;99.90;;;;;;5054981;28;20084;-65
2022/07/26 04:41:00;;;;;;;8.27;3.22;;;17.00;99.90;;;;;;5012746;28;20064;-65
2022/07/26 04:43:27;;;;;;;5.95;2.30;;;17.00;99.90;;;;;;5046054;28;20048;-66
2022/07/26 04:45:56;;;;;;;5.80;2.65;;;17.00;99.90;;;;;;5033455;28;20055;-64
2022/07/26 04:48:23;;;;;;;7.88;3.05;;;17.00;99.90;;;;;;5048253;28;20059;-66
2022/07/26 04:50:50;;;;;;;6.07;2.60;;;16.90;99.90;;;;;;5049203;28;20053;-66
2022/07/26 04:53:17;;;;;;;4.65;2.10;;;16.90;99.90;;;;;;5050994;28;20045;-65
2022/07/26 04:55:44;;;;;;;6.45;2.50;;;16.80;99.90;;;;;;5050465;28;20056;-65
2022/07/26 04:58:10;;;;;;;6.40;2.42;;;16.80;99.90;;;;;;5049481;28;20485;-65
2022/07/26 05:00:37;;;;;;;5.55;2.63;;;16.80;99.90;;;;;;5051108;28;20056;-65
2022/07/26 05:03:24;;;;;;;6.63;2.35;;;16.80;99.90;;;;;;5049885;28;20048;-65
2022/07/26 05:05:51;;;;;;;5.80;1.90;;;16.90;99.90;;;;;;5047667;28;20371;-65
2022/07/26 05:08:18;;;;;;;5.00;1.90;;;16.90;99.90;;;;;;5048408;28;20041;-63
2022/07/26 05:10:45;;;;;;;6.43;3.22;;;16.90;99.90;;;;;;5049434;28;20051;-63
2022/07/26 05:13:20;;;;;;;5.25;2.15;;;16.90;99.90;;;;;;5051859;28;20670;-64
2022/07/26 05:15:55;;;;;;;4.28;2.50;;;16.90;99.90;;;;;;5049704;28;20048;-63
2022/07/26 05:18:22;;;;;;;4.80;2.17;;;16.90;99.90;;;;;;5045060;28;20049;-63
2022/07/26 05:20:50;;;;;;;5.80;1.60;;;16.90;99.90;;;;;;5050663;28;20044;-64
2022/07/26 05:23:18;;;;;;;5.68;1.85;;;16.90;99.90;;;;;;5049616;28;20120;-64
2022/07/26 05:25:45;;;;;;;4.38;1.88;;;16.90;99.90;;;;;;5050364;28;20507;-64
2022/07/26 05:28:12;;;;;;;4.32;1.70;;;16.90;99.90;;;;;;5053618;28;20385;-64
2022/07/26 05:30:39;;;;;;;6.53;2.40;;;16.90;99.90;;;;;;5056851;28;20454;-65
2022/07/26 05:33:06;;;;;;;3.60;2.15;;;17.00;99.90;;;;;;5049975;28;20500;-64
2022/07/26 05:35:33;;;;;;;8.23;1.90;;;16.90;99.90;;;;;;5052723;28;20052;-63
2022/07/26 05:38:00;;;;;;;3.55;1.92;;;16.90;99.90;;;;;;5051536;28;20048;-64
2022/07/26 05:40:26;;;;;;;7.18;2.60;;;16.90;99.90;;;;;;5051642;28;20049;-65
2022/07/26 05:42:53;;;;;;;5.70;2.75;;;16.80;99.90;;;;;;5035400;28;20048;-63
2022/07/26 05:45:20;;;;;;;4.38;2.35;;;16.90;99.90;;;;;;5053525;28;20534;-63
2022/07/26 05:47:51;;;;;;;5.68;2.45;;;16.90;99.90;;;;;;5051817;28;20049;-64
2022/07/26 05:50:18;;;;;;;7.18;2.30;;;16.90;99.90;;;;;;5035964;28;20041;-64
2022/07/26 05:52:45;;;;;;;5.38;2.10;;;16.80;99.90;;;;;;5052933;28;20052;-64
2022/07/26 05:55:12;;;;;;;4.15;2.15;;;16.80;99.90;;;;;;5053637;28;20048;-64
2022/07/26 05:57:46;;;;;;;6.28;2.20;;;16.80;99.90;;;;;;5051048;28;20045;-63
2022/07/26 06:00:15;;;;;;;6.63;2.08;;;16.80;99.90;;;;;;5053314;28;20131;-64
2022/07/26 06:02:42;;;;;;;6.47;1.98;;;16.80;99.90;;;;;;5052868;28;20041;-64
2022/07/26 06:05:09;;;;;;;3.58;1.60;;;16.80;99.90;;;;;;5051954;28;20063;-64
2022/07/26 06:07:36;;;;;;;5.40;2.08;;;16.60;99.90;;;;;;5052299;28;20060;-64
2022/07/26 06:10:03;;;;;;;5.35;2.00;;;16.50;99.90;;;;;;5053050;28;20057;-64
2022/07/26 06:12:31;;;;;;;6.93;2.58;;;16.40;99.90;;;;;;5044621;28;20060;-64
2022/07/26 06:14:57;;;;;;;8.45;2.75;;;16.40;99.90;;;;;;5052355;28;20412;-63
2022/07/26 06:17:28;;;;;;;12.48;3.05;;;16.30;99.90;;;;;;5052426;28;20040;-64
2022/07/26 06:19:56;;;;;;;11.18;7.32;;;16.30;99.90;;;;;;5052002;28;20581;-64
2022/07/26 06:22:23;;;;;;;11.48;7.03;;;16.20;99.90;;;;;;5050367;28;20053;-65
2022/07/26 06:24:50;;;;;;;5.63;3.35;;;16.20;99.90;;;;;;5050447;28;20044;-62
2022/07/26 06:27:17;;;;;;;6.38;2.83;;;16.20;99.90;;;;;;5058578;28;20047;-60
2022/07/26 06:29:47;;;;;;;7.38;2.47;;;16.10;99.90;;;;;;5053842;28;20103;-60
2022/07/26 06:32:14;;;;;;;7.03;2.60;;;16.00;99.90;;;;;;5052881;28;20112;-60
2022/07/26 06:34:41;;;;;;;48.97;43.80;;;16.10;99.90;;;;;;5052974;28;20045;-72
2022/07/26 06:37:08;;;;;;;14.95;9.52;;;16.00;99.90;;;;;;5051422;28;20119;-69
2022/07/26 06:39:35;;;;;;;8.57;4.72;;;16.00;99.90;;;;;;5050110;28;20128;-61
2022/07/26 06:42:02;;;;;;;6.00;3.15;;;16.10;99.90;;;;;;5055259;28;20056;-69
2022/07/26 06:44:29;;;;;;;10.40;3.88;;;16.30;99.90;;;;;;5051705;28;20044;-70
2022/07/26 06:46:55;;;;;;;9.45;4.03;;;16.30;99.90;;;;;;5052948;28;20404;-70
2022/07/26 06:49:22;;;;;;;6.65;2.72;;;16.50;99.90;;;;;;5050023;28;20049;-70
2022/07/26 06:51:49;;;;;;;6.63;3.70;;;16.60;99.90;;;;;;5050468;28;20049;-72
2022/07/26 06:54:16;;;;;;;5.15;3.05;;;16.70;99.90;;;;;;5031460;28;20053;-72
2022/07/26 06:56:43;;;;;;;8.63;4.20;;;16.70;99.90;;;;;;5033006;28;20057;-70
2022/07/26 06:59:25;;;;;;;6.20;3.42;;;16.80;99.90;;;;;;5009021;28;20056;-71
2022/07/26 07:01:52;;;;;;;5.47;3.05;;;16.80;99.90;;;;;;5050777;28;20044;-71
2022/07/26 07:04:29;;;;;;;9.65;3.85;;;16.80;99.90;;;;;;5060689;28;20099;-70
2022/07/26 07:07:01;;;;;;;7.35;3.22;;;16.80;99.90;;;;;;5034086;28;20060;-70
2022/07/26 07:09:31;;;;;;;8.38;3.38;;;16.80;99.90;;;;;;5026457;28;20424;-70
2022/07/26 07:11:58;;;;;;;7.60;4.97;;;16.90;99.90;;;;;;5035239;28;20117;-69
2022/07/26 07:14:36;;;;;;;8.95;3.42;;;17.00;99.90;;;;;;5052336;28;20041;-70
2022/07/26 07:17:02;;;;;;;8.20;3.90;;;17.10;99.90;;;;;;5035398;28;20053;-70
2022/07/26 07:19:39;;;;;;;6.90;3.63;;;17.20;99.90;;;;;;5052784;28;20045;-70
2022/07/26 07:22:10;;;;;;;6.97;3.17;;;17.40;99.90;;;;;;5055480;28;20084;-69
2022/07/26 07:24:38;;;;;;;7.10;3.47;;;17.60;99.90;;;;;;5048756;28;20049;-70
2022/07/26 07:27:05;;;;;;;8.85;3.42;;;17.80;99.90;;;;;;5050961;28;20488;-71
2022/07/26 07:29:32;;;;;;;6.85;3.60;;;17.90;99.90;;;;;;5052701;28;20053;-72
2022/07/26 07:31:59;;;;;;;9.77;3.63;;;17.90;99.90;;;;;;5031179;28;20075;-73
2022/07/26 07:34:29;;;;;;;9.98;3.50;;;18.00;99.90;;;;;;5047670;28;20052;-72
2022/07/26 07:36:56;;;;;;;7.22;3.53;;;18.00;99.90;;;;;;5049935;28;20049;-71
2022/07/26 07:39:23;;;;;;;8.40;4.57;;;18.00;99.90;;;;;;5052202;28;20051;-73
2022/07/26 07:42:00;;;;;;;7.72;2.65;;;18.00;99.90;;;;;;5050775;28;20103;-70
2022/07/26 07:44:27;;;;;;;7.63;3.05;;;18.10;99.90;;;;;;5041324;28;20051;-68
2022/07/26 07:46:54;;;;;;;5.50;3.10;;;18.00;99.90;;;;;;5047816;28;20079;-67
2022/07/26 07:49:21;;;;;;;5.70;2.85;;;18.00;99.90;;;;;;5031465;28;20493;-67
2022/07/26 07:51:48;;;;;;;19.38;6.78;;;18.10;99.90;;;;;;5045744;28;20484;-67
2022/07/26 07:54:15;;;;;;;15.05;7.20;;;18.10;99.90;;;;;;5052159;28;20072;-68
2022/07/26 07:56:42;;;;;;;20.13;14.65;;;18.00;99.90;;;;;;5056510;28;20060;-67
2022/07/26 07:59:09;;;;;;;9.05;4.45;;;18.10;99.90;;;;;;5054774;28;20559;-67
2022/07/26 08:01:37;;;;;;;5.93;2.92;;;18.00;99.90;;;;;;5051210;28;20128;-66
2022/07/26 08:04:09;;;;;;;5.28;2.97;;;18.00;99.90;;;;;;5049898;28;20056;-71
2022/07/26 08:06:36;;;;;;;6.80;3.17;;;17.90;99.90;;;;;;5020736;28;20095;-73
2022/07/26 08:09:06;;;;;;;7.30;3.83;;;17.80;99.90;;;;;;5048924;28;20045;-70
2022/07/26 08:11:35;;;;;;;7.13;3.53;;;17.70;99.90;;;;;;5050141;28;20053;-75
2022/07/26 08:14:02;;;;;;;6.30;3.80;;;17.60;99.90;;;;;;5051733;28;20045;-72
2022/07/26 08:16:30;;;;;;;9.93;5.60;;;17.60;99.90;;;;;;5049287;28;20072;-74
2022/07/26 08:18:57;;;;;;;14.98;12.55;;;17.50;99.90;;;;;;5053389;28;20093;-74
2022/07/26 08:21:27;;;;;;;7.20;4.32;;;17.50;99.90;;;;;;5048000;28;20579;-73
2022/07/26 08:23:55;;;;;;;6.85;3.30;;;17.60;99.90;;;;;;5056417;28;20082;-68
2022/07/26 08:26:23;;;;;;;10.02;4.53;;;17.60;99.90;;;;;;5050003;28;20051;-70
2022/07/26 08:28:50;;;;;;;7.13;4.47;;;17.80;99.90;;;;;;5017270;28;20497;-67
2022/07/26 08:31:26;;;;;;;9.50;5.38;;;17.90;99.90;;;;;;5048945;28;20060;-69
2022/07/26 08:33:54;;;;;;;11.90;5.57;;;17.90;99.90;;;;;;5029158;28;20050;-69
2022/07/26 08:36:21;;;;;;;9.52;5.20;;;17.90;99.90;;;;;;5018654;28;20064;-69
2022/07/26 08:38:48;;;;;;;11.07;5.32;;;17.90;99.90;;;;;;5040964;28;20045;-68
2022/07/26 08:41:16;;;;;;;9.13;6.22;;;17.80;99.90;;;;;;5051347;28;20061;-70
2022/07/26 08:43:44;;;;;;;9.90;5.30;;;17.70;99.90;;;;;;5049776;28;20044;-68
2022/07/26 08:46:22;;;;;;;10.80;5.93;;;17.70;99.90;;;;;;5048847;28;20500;-71
2022/07/26 08:48:54;;;;;;;11.05;5.15;;;17.80;99.90;;;;;;5049269;28;20068;-71
2022/07/26 08:51:22;;;;;;;11.15;5.57;;;17.80;99.90;;;;;;5046301;28;20049;-68
2022/07/26 08:53:53;;;;;;;10.63;5.50;;;17.90;99.90;;;;;;5047804;28;20076;-66
2022/07/26 08:56:23;;;;;;;11.07;5.53;;;17.90;99.90;;;;;;5045885;28;20115;-65
2022/07/26 08:58:50;;;;;;;7.32;5.53;;;17.80;99.90;;;;;;5045866;28;20052;-65
2022/07/26 09:01:17;;;;;;;8.80;5.28;;;17.90;99.90;;;;;;5043616;28;20064;-68
2022/07/26 09:03:44;;;;;;;11.05;5.32;;;18.00;99.90;;;;;;5025287;28;20037;-66
2022/07/26 09:06:19;;;;;;;9.23;5.88;;;18.20;99.90;;;;;;5030705;28;20140;-67
2022/07/26 09:08:49;;;;;;;9.85;5.32;;;18.30;99.90;;;;;;5034718;28;20051;-67
2022/07/26 09:11:29;;;;;;;7.85;5.82;;;18.30;99.90;;;;;;5048013;28;20136;-65
2022/07/26 09:14:03;;;;;;;11.02;5.40;;;18.50;99.90;;;;;;5049808;28;20041;-63
2022/07/26 09:16:30;;;;;;;10.55;5.70;;;18.70;99.90;;;;;;5051386;28;20435;-66
2022/07/26 09:19:17;;;;;;;8.25;4.80;;;18.90;99.90;;;;;;5050233;28;20441;-64
2022/07/26 09:21:45;;;;;;;11.90;5.97;;;19.10;99.90;;;;;;5049200;28;20128;-66
2022/07/26 09:24:12;;;;;;;7.97;5.68;;;19.20;99.90;;;;;;5035821;28;20067;-73
2022/07/26 09:26:39;;;;;;;12.00;5.25;;;19.30;99.90;;;;;;5050426;28;20056;-65
2022/07/26 09:29:08;;;;;;;7.43;5.15;;;19.40;99.90;;;;;;5064340;28;20063;-65
2022/07/26 09:31:36;;;;;;;12.90;6.32;;;19.60;99.90;;;;;;5028612;28;20056;-65
2022/07/26 09:34:06;;;;;;;10.38;5.47;;;19.80;99.90;;;;;;5051998;28;20139;-74
2022/07/26 09:36:52;;;;;;;7.72;4.72;;;20.00;99.90;;;;;;5055171;28;20049;-66
2022/07/26 09:39:19;;;;;;;12.75;4.30;;;20.30;99.90;;;;;;5048843;28;20053;-65
2022/07/26 09:42:09;;;;;;;9.10;4.90;;;20.40;99.90;;;;;;5046770;28;20154;-69
2022/07/26 09:44:55;;;;;;;6.78;4.22;;;20.30;99.90;;;;;;5053625;28;20136;-68
2022/07/26 09:47:35;;;;;;;7.07;4.45;;;20.20;99.90;;;;;;5046130;28;20077;-68
2022/07/26 09:50:32;;;;;;;8.00;5.10;;;20.00;99.90;;;;;;5048669;28;20064;-75
2022/07/26 09:53:05;;;;;;;10.35;4.60;;;20.00;99.90;;;;;;5037810;28;20495;-68
2022/07/26 09:55:54;;;;;;;9.27;4.85;;;19.90;99.90;;;;;;5049938;28;20404;-68
2022/07/26 09:58:21;;;;;;;7.40;4.75;;;19.90;99.90;;;;;;5050847;28;20052;-68
2022/07/26 10:00:48;;;;;;;8.70;5.63;;;19.60;99.90;;;;;;5048072;28;20400;-69
2022/07/26 10:03:15;;;;;;;9.50;4.82;;;19.50;99.90;;;;;;5046903;28;20398;-67
2022/07/26 10:05:42;;;;;;;6.72;4.38;;;19.60;99.90;;;;;;5050289;28;20060;-67
2022/07/26 10:08:09;;;;;;;12.48;4.75;;;19.70;99.90;;;;;;5046950;28;20041;-75
2022/07/26 10:10:38;;;;;;;8.52;4.63;;;20.00;99.90;;;;;;5014169;28;20049;-67
2022/07/26 10:13:06;;;;;;;6.97;4.55;;;20.20;99.90;;;;;;5048520;28;20451;-72
2022/07/26 10:15:33;;;;;;;8.60;4.57;;;20.40;99.90;;;;;;5059021;28;20068;-67
2022/07/26 10:18:01;;;;;;;7.22;4.10;;;20.60;99.90;;;;;;5036469;28;20067;-69
2022/07/26 10:20:49;;;;;;;9.20;4.10;;;20.80;99.90;;;;;;5034963;28;20049;-67
2022/07/26 10:23:35;;;;;;;5.80;4.07;;;20.80;99.90;;;;;;5031194;28;20056;-72
2022/07/26 10:26:02;;;;;;;8.15;3.70;;;20.90;99.90;;;;;;5048549;28;20044;-68
2022/07/26 10:28:30;;;;;;;9.63;4.00;;;21.20;99.90;;;;;;5032781;28;20076;-69
2022/07/26 10:31:25;;;;;;;7.90;3.72;;;21.10;99.90;;;;;;5049640;28;20053;-70
2022/07/26 10:33:53;;;;;;;8.35;4.53;;;21.20;99.90;;;;;;5044237;28;20120;-68
2022/07/26 10:36:26;;;;;;;9.02;3.70;;;21.30;99.90;;;;;;5047597;28;20158;-72
2022/07/26 10:39:14;;;;;;;7.28;3.10;;;21.30;99.90;;;;;;5050774;28;20085;-65
2022/07/26 10:41:45;;;;;;;6.35;3.63;;;21.40;99.90;;;;;;5014322;28;20124;-69
2022/07/26 10:44:23;;;;;;;6.18;3.10;;;21.30;99.90;;;;;;5050258;28;21854;-70
2022/07/26 10:46:58;;;;;;;4.25;3.03;;;21.20;99.90;;;;;;5047967;28;20159;-71
2022/07/26 10:49:29;;;;;;;5.78;3.90;;;21.20;99.90;;;;;;5048610;28;20049;-71
2022/07/26 10:52:08;;;;;;;5.80;3.38;;;21.40;99.90;;;;;;5047370;28;20052;-70
2022/07/26 10:55:02;;;;;;;4.78;3.45;;;21.60;99.90;;;;;;5044788;28;20052;-70
2022/07/26 10:57:33;;;;;;;5.78;3.80;;;21.80;99.90;;;;;;5046758;28;20049;-70
2022/07/26 11:00:00;;;;;;;5.38;3.33;;;21.70;99.90;;;;;;5050101;28;20127;-75
2022/07/26 11:02:32;;;;;;;67.70;53.95;;;21.90;99.90;;;;;;5036085;28;20045;-74
2022/07/26 11:05:03;;;;;;;17.58;12.27;;;22.20;99.90;;;;;;5018950;28;20041;-74
2022/07/26 11:07:57;;;;;;;10.93;7.47;;;22.40;99.90;;;;;;5055133;28;20084;-77
2022/07/26 11:10:30;;;;;;;8.90;4.22;;;22.50;99.90;;;;;;5055394;28;20049;-69
2022/07/26 11:13:07;;;;;;;6.60;3.67;;;22.40;99.90;;;;;;5052705;28;20051;-67
2022/07/26 11:15:37;;;;;;;6.45;2.92;;;22.40;99.90;;;;;;5033299;28;20053;-68
2022/07/26 11:18:06;;;;;;;4.57;3.08;;;22.50;99.90;;;;;;5015998;28;20401;-69
2022/07/26 11:20:33;;;;;;;6.57;3.58;;;22.60;99.90;;;;;;5050853;28;20051;-66
2022/07/26 11:23:00;;;;;;;8.85;3.38;;;22.40;99.90;;;;;;5052818;28;20105;-67
2022/07/26 11:25:27;;;;;;;11.80;3.40;;;22.40;99.90;;;;;;5049748;28;20488;-77
2022/07/26 11:28:02;;;;;;;7.07;3.97;;;22.40;99.90;;;;;;5049757;28;20053;-73
2022/07/26 11:30:33;;;;;;;8.83;3.63;;;22.50;99.90;;;;;;5033906;28;20327;-73
2022/07/26 11:33:00;;;;;;;11.48;3.85;;;22.60;99.90;;;;;;5052129;28;20132;-67
2022/07/26 11:35:27;;;;;;;7.82;3.45;;;22.60;99.90;;;;;;5050615;28;20049;-66
2022/07/26 11:37:56;;;;;;;15.77;8.88;;;22.50;99.90;;;;;;5050859;28;20051;-65
2022/07/26 11:40:46;;;;;;;12.07;6.07;;;22.40;99.90;;;;;;5043638;28;20525;-65
2022/07/26 11:43:13;;;;;;;9.82;4.47;;;22.30;99.90;;;;;;5049132;28;20041;-66
2022/07/26 11:45:41;;;;;;;6.55;4.20;;;22.20;99.90;;;;;;5035781;28;20045;-66
2022/07/26 11:48:07;;;;;;;7.22;3.78;;;22.10;99.90;;;;;;5049075;28;20048;-66
2022/07/26 11:50:34;;;;;;;9.68;4.03;;;22.10;99.90;;;;;;5050206;28;20048;-67
2022/07/26 11:53:01;;;;;;;7.78;3.95;;;22.10;99.90;;;;;;5051434;28;20063;-66
2022/07/26 11:55:29;;;;;;;5.45;3.70;;;22.10;99.90;;;;;;5051173;28;20071;-69
2022/07/26 11:57:56;;;;;;;10.55;6.20;;;22.00;99.90;;;;;;5047705;28;20055;-68
2022/07/26 12:00:23;;;;;;;13.07;10.38;;;22.00;99.90;;;;;;5035657;28;20493;-68
2022/07/26 12:02:50;;;;;;;19.75;17.50;;;21.90;99.90;;;;;;5050383;28;20192;-67
2022/07/26 12:05:22;;;;;;;20.27;14.85;;;21.90;99.90;;;;;;5050676;28;20045;-67
2022/07/26 12:07:59;;;;;;;9.07;6.05;;;21.80;99.90;;;;;;5049450;28;20052;-65
2022/07/26 12:10:26;;;;;;;7.95;4.60;;;21.70;99.90;;;;;;5050726;28;20114;-66
2022/07/26 12:13:13;;;;;;;8.38;4.13;;;21.60;99.90;;;;;;5050153;28;20045;-67
2022/07/26 12:15:47;;;;;;;10.23;4.07;;;21.60;99.90;;;;;;5034526;28;20056;-66
2022/07/26 12:18:40;;;;;;;7.38;4.20;;;21.60;99.90;;;;;;5048472;28;20128;-65
2022/07/26 12:21:07;;;;;;;9.18;5.15;;;21.60;99.90;;;;;;5048313;28;20045;-66
2022/07/26 12:23:47;;;;;;;7.68;4.20;;;21.60;99.90;;;;;;5052439;28;20090;-65
2022/07/26 12:26:18;;;;;;;6.68;3.60;;;21.70;99.90;;;;;;5047546;28;20067;-65
2022/07/26 12:28:45;;;;;;;6.38;4.20;;;21.60;99.90;;;;;;5050714;28;20064;-66
2022/07/26 12:31:23;;;;;;;8.82;3.40;;;21.90;99.90;;;;;;5051084;28;20057;-64
2022/07/26 12:33:51;;;;;;;5.57;3.90;;;22.10;99.90;;;;;;5033175;28;20451;-67
2022/07/26 12:36:18;;;;;;;6.80;3.45;;;22.10;99.90;;;;;;5048356;28;20104;-69
2022/07/26 12:38:58;;;;;;;9.05;4.05;;;22.10;99.90;;;;;;5056368;28;20055;-70
2022/07/26 12:41:38;;;;;;;9.75;4.38;;;22.10;99.90;;;;;;5058407;28;20508;-70
2022/07/26 12:44:05;;;;;;;5.57;3.38;;;22.30;99.90;;;;;;5022423;28;20060;-66
2022/07/26 12:46:33;;;;;;;10.10;3.72;;;22.30;99.90;;;;;;5046705;28;20049;-68
2022/07/26 12:49:00;;;;;;;8.63;3.55;;;22.30;99.90;;;;;;5048660;28;20048;-68
2022/07/26 12:51:27;;;;;;;5.57;3.78;;;22.30;99.90;;;;;;5018187;28;20485;-71
2022/07/26 12:53:54;;;;;;;19.85;4.55;;;22.20;99.90;;;;;;5050230;28;20072;-70
2022/07/26 12:56:21;;;;;;;9.95;3.95;;;22.20;99.90;;;;;;5055913;28;20044;-67
2022/07/26 12:58:48;;;;;;;46.80;40.60;;;22.20;99.90;;;;;;5056490;28;20045;-68